createdAt,value
2019-05-17T00:01:37.530Z,99.90
2019-05-17T00:04:07.176Z,99.90
2019-05-17T00:06:36.951Z,99.90
2019-05-17T00:09:07.373Z,99.90
2019-05-17T00:11:36.724Z,99.90
2019-05-17T00:14:06.412Z,99.90
2019-05-17T00:16:37.339Z,99.90
2019-05-17T00:19:07.443Z,99.90
2019-05-17T00:21:37.111Z,99.90
2019-05-17T00:24:06.649Z,99.90
2019-05-17T00:26:36.320Z,99.90
2019-05-17T00:29:06.841Z,99.90
2019-05-17T00:31:36.984Z,99.90
2019-05-17T00:34:07.360Z,99.90
2019-05-17T00:36:37.523Z,99.90
2019-05-17T00:39:07.558Z,99.90
2019-05-17T00:41:37.536Z,99.90
2019-05-17T00:44:06.710Z,99.90
2019-05-17T00:46:37.235Z,99.90
2019-05-17T00:49:06.601Z,99.90
2019-05-17T00:51:36.870Z,99.90
2019-05-17T00:54:06.863Z,99.90
2019-05-17T00:56:37.196Z,99.90
2019-05-17T00:59:07.519Z,99.90
2019-05-17T01:01:36.637Z,99.90
2019-05-17T01:04:06.854Z,99.90
2019-05-17T01:06:37.554Z,99.90
2019-05-17T01:09:07.942Z,99.90
2019-05-17T01:11:36.997Z,99.90
2019-05-17T01:14:06.853Z,99.90
2019-05-17T01:16:36.769Z,99.90
2019-05-17T01:19:06.813Z,99.90
2019-05-17T01:21:36.764Z,99.90
2019-05-17T01:24:06.801Z,99.90
2019-05-17T01:26:37.430Z,99.90
2019-05-17T01:29:06.932Z,99.90
2019-05-17T01:31:37.373Z,99.90
2019-05-17T01:34:07.369Z,99.90
2019-05-17T01:36:37.064Z,99.90
2019-05-17T01:39:17.050Z,99.90
2019-05-17T01:41:37.351Z,99.90
2019-05-17T01:44:07.516Z,99.90
2019-05-17T01:46:37.107Z,99.90
2019-05-17T01:49:06.849Z,99.90
2019-05-17T01:51:37.061Z,99.90
2019-05-17T01:54:06.823Z,99.90
2019-05-17T01:56:36.925Z,99.90
2019-05-17T01:59:06.785Z,99.90
2019-05-17T02:01:37.115Z,99.90
2019-05-17T02:04:06.745Z,99.90
2019-05-17T02:06:36.637Z,99.90
2019-05-17T02:09:07.129Z,99.90
2019-05-17T02:11:37.335Z,99.90
2019-05-17T02:14:07.043Z,99.90
2019-05-17T02:16:37.597Z,99.90
2019-05-17T02:19:06.882Z,99.90
2019-05-17T02:21:38.558Z,99.90
2019-05-17T02:24:07.946Z,99.90
2019-05-17T02:26:37.541Z,99.90
2019-05-17T02:29:06.555Z,99.90
2019-05-17T02:31:35.998Z,99.90
2019-05-17T02:34:05.591Z,99.90
2019-05-17T02:36:34.691Z,99.90
2019-05-17T02:39:05.104Z,99.90
2019-05-17T02:41:34.667Z,99.90
2019-05-17T02:44:04.027Z,99.90
2019-05-17T02:46:33.768Z,99.90
2019-05-17T02:49:03.508Z,99.90
2019-05-17T02:51:32.694Z,99.90
2019-05-17T02:54:04.142Z,99.90
2019-05-17T02:56:32.893Z,99.90
2019-05-17T02:59:03.537Z,99.90
2019-05-17T03:01:33.500Z,99.90
2019-05-17T03:04:03.950Z,99.90
2019-05-17T03:06:33.446Z,99.90
2019-05-17T03:09:03.377Z,99.90
2019-05-17T03:11:33.521Z,99.90
2019-05-17T03:14:04.019Z,99.90
2019-05-17T03:16:33.841Z,99.90
2019-05-17T03:19:04.222Z,99.90
2019-05-17T03:21:33.940Z,99.90
2019-05-17T03:24:03.572Z,99.90
2019-05-17T03:26:32.999Z,99.90
2019-05-17T03:29:03.275Z,99.90
2019-05-17T03:31:40.693Z,99.90
2019-05-17T03:34:06.514Z,99.90
2019-05-17T03:36:36.147Z,99.90
2019-05-17T03:39:06.492Z,99.90
2019-05-17T03:41:35.491Z,99.90
2019-05-17T03:44:04.491Z,99.90
2019-05-17T03:46:33.542Z,99.90
2019-05-17T03:49:03.793Z,99.90
2019-05-17T03:51:33.590Z,99.90
2019-05-17T03:54:02.954Z,99.90
2019-05-17T03:56:32.975Z,99.90
2019-05-17T03:59:03.762Z,99.90
2019-05-17T04:01:32.954Z,99.90
2019-05-17T04:04:02.904Z,99.90
2019-05-17T04:06:32.997Z,99.90
2019-05-17T04:09:03.677Z,99.90
2019-05-17T04:11:36.442Z,99.90
2019-05-17T04:14:04.252Z,99.90
2019-05-17T04:16:33.915Z,99.90
2019-05-17T04:19:03.533Z,99.90
2019-05-17T04:21:34.284Z,99.90
2019-05-17T04:24:03.448Z,99.90
2019-05-17T04:26:32.879Z,99.90
2019-05-17T04:29:03.542Z,99.90
2019-05-17T04:31:34.837Z,99.90
2019-05-17T04:34:03.435Z,99.90
2019-05-17T04:36:32.463Z,99.90
2019-05-17T04:39:02.451Z,99.90
2019-05-17T04:41:41.527Z,99.90
2019-05-17T04:44:02.844Z,99.90
2019-05-17T04:46:32.679Z,99.90
2019-05-17T04:49:02.887Z,99.90
2019-05-17T04:51:32.512Z,99.90
2019-05-17T04:54:03.184Z,99.90
2019-05-17T04:56:33.419Z,99.90
2019-05-17T04:59:03.628Z,99.90
2019-05-17T05:01:33.221Z,99.90
2019-05-17T05:04:03.584Z,99.90
2019-05-17T05:06:33.293Z,99.90
2019-05-17T05:09:02.904Z,99.90
2019-05-17T05:11:32.800Z,99.90
2019-05-17T05:14:03.050Z,99.90
2019-05-17T05:16:32.239Z,99.90
2019-05-17T05:19:02.998Z,99.90
2019-05-17T05:21:32.450Z,99.90
2019-05-17T05:24:02.537Z,99.90
2019-05-17T05:26:31.863Z,99.90
2019-05-17T05:29:02.223Z,99.90
2019-05-17T05:31:32.118Z,99.90
2019-05-17T05:34:01.846Z,99.90
2019-05-17T05:36:32.783Z,99.90
2019-05-17T05:39:02.409Z,99.90
2019-05-17T05:41:32.121Z,99.90
2019-05-17T05:44:01.898Z,99.90
2019-05-17T05:46:31.790Z,99.90
2019-05-17T05:49:01.748Z,99.90
2019-05-17T05:51:32.002Z,99.90
2019-05-17T05:54:01.733Z,99.90
2019-05-17T05:56:32.590Z,99.90
2019-05-17T05:59:02.982Z,99.90
2019-05-17T06:01:32.729Z,99.90
2019-05-17T06:04:02.751Z,99.90
2019-05-17T06:06:32.284Z,99.90
2019-05-17T06:09:02.713Z,99.90
2019-05-17T06:11:32.334Z,99.90
2019-05-17T06:14:01.735Z,99.90
2019-05-17T06:16:32.184Z,99.90
2019-05-17T06:19:02.468Z,99.90
2019-05-17T06:21:31.947Z,99.90
2019-05-17T06:24:02.613Z,99.90
2019-05-17T06:26:31.658Z,99.90
2019-05-17T06:29:02.725Z,99.90
2019-05-17T06:31:33.266Z,99.90
2019-05-17T06:34:02.044Z,99.90
2019-05-17T06:36:32.830Z,99.90
2019-05-17T06:39:02.405Z,99.90
2019-05-17T06:41:32.312Z,99.90
2019-05-17T06:44:02.915Z,99.90
2019-05-17T06:46:32.589Z,99.90
2019-05-17T06:49:03.075Z,99.90
2019-05-17T06:51:32.163Z,99.90
2019-05-17T06:54:01.801Z,99.90
2019-05-17T06:56:32.218Z,99.90
2019-05-17T06:59:01.398Z,99.90
2019-05-17T07:01:30.269Z,99.90
2019-05-17T07:04:00.308Z,99.90
2019-05-17T07:06:31.074Z,99.90
2019-05-17T07:09:00.939Z,99.80
2019-05-17T07:11:30.390Z,99.90
2019-05-17T07:13:59.723Z,99.90
2019-05-17T07:16:30.096Z,99.30
2019-05-17T07:18:59.779Z,99.40
2019-05-17T07:21:29.757Z,99.80
2019-05-17T07:23:59.387Z,99.30
2019-05-17T07:26:30.234Z,99.60
2019-05-17T07:28:59.437Z,99.40
2019-05-17T07:31:29.787Z,99.10
2019-05-17T07:33:59.862Z,98.60
2019-05-17T07:36:30.646Z,99.20
2019-05-17T07:39:00.783Z,98.50
2019-05-17T07:41:30.401Z,98.70
2019-05-17T07:44:00.391Z,99.20
2019-05-17T07:46:29.547Z,98.60
2019-05-17T07:49:00.362Z,98.70
2019-05-17T07:51:30.101Z,98.30
2019-05-17T07:53:59.838Z,97.80
2019-05-17T07:56:30.563Z,97.70
2019-05-17T07:59:00.137Z,97.70
2019-05-17T08:01:29.666Z,97.70
2019-05-17T08:04:00.679Z,97.20
2019-05-17T08:06:30.603Z,97.60
2019-05-17T08:09:03.938Z,97.30
2019-05-17T08:11:30.495Z,97.10
2019-05-17T08:13:59.779Z,97.00
2019-05-17T08:16:30.371Z,97.20
2019-05-17T08:19:00.374Z,95.70
2019-05-17T08:21:30.437Z,95.50
2019-05-17T08:24:00.244Z,96.60
2019-05-17T08:26:29.824Z,95.10
2019-05-17T08:29:00.784Z,96.90
2019-05-17T08:31:29.707Z,95.80
2019-05-17T08:34:00.102Z,96.20
2019-05-17T08:36:29.833Z,95.60
2019-05-17T08:38:59.686Z,95.10
2019-05-17T08:41:30.914Z,95.30
2019-05-17T08:44:00.757Z,95.50
2019-05-17T08:46:30.532Z,95.60
2019-05-17T08:49:00.373Z,94.80
2019-05-17T08:51:30.527Z,94.60
2019-05-17T08:54:00.130Z,95.60
2019-05-17T08:56:30.965Z,94.20
2019-05-17T08:59:00.795Z,93.60
2019-05-17T09:01:30.257Z,93.50
2019-05-17T09:03:59.861Z,94.00
2019-05-17T09:06:29.390Z,94.80
2019-05-17T09:09:00.633Z,94.80
2019-05-17T09:11:30.243Z,94.00
2019-05-17T09:14:02.154Z,93.80
2019-05-17T09:16:30.841Z,94.10
2019-05-17T09:19:00.525Z,93.80
2019-05-17T09:21:31.384Z,93.30
2019-05-17T09:24:00.576Z,93.50
2019-05-17T09:26:29.529Z,94.50
2019-05-17T09:29:00.903Z,93.00
2019-05-17T09:31:29.851Z,92.70
2019-05-17T09:34:00.283Z,94.20
2019-05-17T09:36:30.255Z,92.50
2019-05-17T09:39:00.168Z,93.00
2019-05-17T09:41:29.427Z,92.70
2019-05-17T09:44:09.643Z,92.80
2019-05-17T09:46:30.249Z,92.90
2019-05-17T09:49:01.231Z,92.50
2019-05-17T09:51:30.454Z,92.30
2019-05-17T09:54:00.118Z,91.10
2019-05-17T09:56:30.157Z,91.30
2019-05-17T09:59:00.397Z,90.80
2019-05-17T10:01:30.407Z,90.60
2019-05-17T10:03:59.923Z,90.30
2019-05-17T10:06:29.068Z,88.60
2019-05-17T10:09:00.280Z,90.80
2019-05-17T10:11:30.743Z,88.30
2019-05-17T10:14:01.365Z,90.60
2019-05-17T10:16:30.826Z,91.10
2019-05-17T10:19:00.155Z,89.80
2019-05-17T10:21:30.336Z,88.20
2019-05-17T10:24:00.194Z,89.20
2019-05-17T10:26:30.377Z,90.50
2019-05-17T10:28:59.530Z,90.20
2019-05-17T10:31:30.426Z,89.20
2019-05-17T10:34:01.125Z,90.30
2019-05-17T10:36:30.246Z,91.20
2019-05-17T10:38:59.339Z,90.80
2019-05-17T10:41:30.143Z,88.70
2019-05-17T10:43:59.243Z,87.50
2019-05-17T10:46:30.005Z,90.50
2019-05-17T10:48:59.486Z,89.90
2019-05-17T10:51:29.593Z,90.10
2019-05-17T10:53:59.999Z,88.60
2019-05-17T10:56:29.158Z,87.10
2019-05-17T10:58:59.988Z,89.00
2019-05-17T11:01:30.525Z,89.80
2019-05-17T11:03:59.654Z,88.10
2019-05-17T11:06:30.203Z,87.10
2019-05-17T11:08:59.564Z,88.30
2019-05-17T11:11:28.771Z,84.80
2019-05-17T11:13:57.953Z,87.20
2019-05-17T11:16:27.563Z,86.50
2019-05-17T11:18:56.482Z,85.40
2019-05-17T11:21:25.458Z,85.40
2019-05-17T11:23:54.401Z,85.10
2019-05-17T11:26:23.362Z,84.80
2019-05-17T11:28:52.274Z,82.30
2019-05-17T11:31:21.215Z,84.30
2019-05-17T11:33:50.148Z,84.50
2019-05-17T11:36:19.054Z,86.40
2019-05-17T11:38:47.996Z,86.20
2019-05-17T11:41:21.773Z,80.90
2019-05-17T11:43:47.833Z,82.00
2019-05-17T11:46:16.732Z,80.40
2019-05-17T11:48:45.674Z,82.10
2019-05-17T11:51:14.572Z,82.20
2019-05-17T11:53:44.018Z,80.20
2019-05-17T11:56:14.873Z,80.80
2019-05-17T11:58:43.581Z,79.90
2019-05-17T12:01:12.535Z,77.20
2019-05-17T12:03:41.617Z,78.30
2019-05-17T12:06:10.592Z,77.20
2019-05-17T12:08:39.505Z,76.60
2019-05-17T12:11:08.411Z,76.60
2019-05-17T12:13:37.354Z,77.00
2019-05-17T12:16:06.386Z,77.90
2019-05-17T12:18:35.390Z,77.40
2019-05-17T12:21:04.386Z,78.00
2019-05-17T12:23:33.285Z,75.00
2019-05-17T12:26:02.211Z,74.30
2019-05-17T12:28:31.142Z,75.00
2019-05-17T12:31:00.154Z,71.80
2019-05-17T12:33:28.996Z,73.20
2019-05-17T12:35:58.029Z,72.70
2019-05-17T12:38:26.905Z,71.30
2019-05-17T12:40:55.885Z,71.40
2019-05-17T12:43:24.866Z,71.40
2019-05-17T12:46:00.894Z,72.70
2019-05-17T12:48:24.378Z,70.20
2019-05-17T12:50:53.334Z,69.30
2019-05-17T12:53:22.371Z,70.90
2019-05-17T12:55:51.298Z,68.00
2019-05-17T12:58:20.274Z,69.10
2019-05-17T13:00:49.290Z,68.30
2019-05-17T13:03:18.410Z,68.60
2019-05-17T13:05:47.324Z,66.40
2019-05-17T13:08:16.149Z,66.50
2019-05-17T13:10:45.205Z,64.00
2019-05-17T13:13:14.452Z,66.50
2019-05-17T13:15:43.933Z,65.80
2019-05-17T13:18:13.534Z,65.50
2019-05-17T13:20:42.434Z,64.60
2019-05-17T13:23:11.664Z,63.00
2019-05-17T13:25:40.567Z,62.00
2019-05-17T13:28:09.591Z,62.80
2019-05-17T13:30:38.606Z,63.60
2019-05-17T13:33:07.572Z,58.60
2019-05-17T13:35:36.497Z,61.60
2019-05-17T13:38:05.402Z,61.60
2019-05-17T13:40:39.612Z,65.00
2019-05-17T13:43:05.356Z,63.90
2019-05-17T13:45:34.462Z,63.70
2019-05-17T13:48:03.517Z,65.90
2019-05-17T13:50:32.633Z,66.30
2019-05-17T13:53:01.495Z,64.00
2019-05-17T13:55:30.473Z,66.20
2019-05-17T13:57:59.389Z,64.90
2019-05-17T14:00:28.712Z,66.00
2019-05-17T14:02:57.895Z,65.90
2019-05-17T14:05:26.997Z,66.50
2019-05-17T14:07:56.296Z,65.60
2019-05-17T14:10:28.650Z,64.80
2019-05-17T14:12:56.132Z,65.00
2019-05-17T14:15:25.160Z,65.40
2019-05-17T14:17:54.106Z,65.50
2019-05-17T14:20:22.974Z,65.80
2019-05-17T14:22:51.953Z,65.90
2019-05-17T14:25:21.566Z,68.90
2019-05-17T14:27:50.411Z,67.40
2019-05-17T14:30:19.390Z,66.80
2019-05-17T14:32:48.344Z,67.80
2019-05-17T14:35:17.318Z,68.10
2019-05-17T14:37:46.261Z,66.30
2019-05-17T14:40:15.350Z,66.90
2019-05-17T14:42:44.456Z,65.90
2019-05-17T14:45:13.424Z,66.60
2019-05-17T14:47:42.298Z,66.40
2019-05-17T14:50:11.674Z,66.40
2019-05-17T14:52:40.644Z,68.10
2019-05-17T14:55:09.717Z,67.70
2019-05-17T14:57:38.663Z,67.00
2019-05-17T15:00:08.172Z,66.30
2019-05-17T15:02:37.110Z,67.50
2019-05-17T15:05:06.475Z,65.00
2019-05-17T15:07:35.552Z,65.80
2019-05-17T15:10:04.936Z,67.30
2019-05-17T15:12:33.879Z,65.40
2019-05-17T15:15:02.865Z,64.80
2019-05-17T15:17:34.963Z,65.00
2019-05-17T15:20:02.713Z,65.30
2019-05-17T15:22:31.703Z,64.60
2019-05-17T15:25:00.617Z,65.00
2019-05-17T15:27:29.502Z,64.70
2019-05-17T15:29:58.330Z,63.80
2019-05-17T15:32:27.244Z,64.00
2019-05-17T15:34:56.081Z,64.30
2019-05-17T15:37:25.014Z,63.30
2019-05-17T15:39:54.161Z,62.20
2019-05-17T15:42:23.033Z,63.60
2019-05-17T15:44:51.898Z,63.50
2019-05-17T15:47:20.825Z,63.30
2019-05-17T15:49:49.821Z,64.40
2019-05-17T15:52:18.737Z,62.80
2019-05-17T15:54:48.718Z,65.00
2019-05-17T15:57:18.089Z,63.60
2019-05-17T15:59:47.282Z,63.30
2019-05-17T16:02:16.981Z,63.40
2019-05-17T16:04:45.845Z,64.50
2019-05-17T16:07:14.785Z,63.20
2019-05-17T16:09:43.631Z,63.60
2019-05-17T16:12:12.490Z,62.60
2019-05-17T16:14:41.479Z,62.30
2019-05-17T16:17:10.387Z,63.20
2019-05-17T16:19:39.293Z,62.70
2019-05-17T16:22:08.595Z,62.00
2019-05-17T16:24:37.492Z,60.50
2019-05-17T16:27:06.366Z,61.30
2019-05-17T16:29:35.430Z,62.70
2019-05-17T16:32:04.473Z,63.00
2019-05-17T16:34:33.307Z,62.50
2019-05-17T16:37:02.394Z,62.50
2019-05-17T16:39:31.242Z,63.80
2019-05-17T16:42:00.599Z,63.40
2019-05-17T16:44:29.542Z,63.70
2019-05-17T16:46:59.159Z,63.30
2019-05-17T16:49:28.622Z,63.90
2019-05-17T16:51:57.667Z,64.10
2019-05-17T16:54:26.666Z,64.60
2019-05-17T16:56:55.578Z,64.20
2019-05-17T16:59:24.497Z,65.40
2019-05-17T17:01:53.455Z,67.10
2019-05-17T17:04:22.386Z,65.20
2019-05-17T17:06:51.650Z,64.80
2019-05-17T17:09:21.162Z,65.20
2019-05-17T17:11:50.102Z,65.10
2019-05-17T17:14:19.114Z,66.00
2019-05-17T17:16:48.129Z,65.40
2019-05-17T17:19:17.045Z,65.30
2019-05-17T17:21:45.918Z,65.30
2019-05-17T17:24:14.889Z,65.80
2019-05-17T17:26:43.836Z,66.20
2019-05-17T17:29:12.909Z,65.80
2019-05-17T17:31:41.918Z,64.30
2019-05-17T17:34:10.842Z,65.90
2019-05-17T17:36:40.017Z,65.40
2019-05-17T17:39:09.305Z,65.50
2019-05-17T17:41:38.254Z,65.10
2019-05-17T17:44:07.243Z,66.10
2019-05-17T17:46:36.567Z,65.70
2019-05-17T17:49:05.715Z,65.30
2019-05-17T17:51:34.748Z,66.80
2019-05-17T17:54:03.733Z,67.60
2019-05-17T17:56:32.666Z,67.20
2019-05-17T17:59:01.608Z,66.40
2019-05-17T18:01:30.606Z,66.60
2019-05-17T18:03:59.533Z,67.80
2019-05-17T18:06:28.534Z,68.80
2019-05-17T18:08:57.559Z,67.30
2019-05-17T18:11:26.587Z,68.70
2019-05-17T18:13:55.831Z,68.30
2019-05-17T18:16:24.870Z,69.00
2019-05-17T18:18:53.806Z,69.30
2019-05-17T18:21:22.830Z,69.60
2019-05-17T18:23:51.747Z,69.50
2019-05-17T18:26:20.724Z,70.10
2019-05-17T18:28:49.545Z,70.60
2019-05-17T18:31:18.410Z,71.30
2019-05-17T18:33:47.321Z,70.10
2019-05-17T18:36:16.542Z,70.90
2019-05-17T18:38:48.832Z,71.10
2019-05-17T18:41:17.846Z,71.20
2019-05-17T18:43:46.729Z,71.20
2019-05-17T18:46:15.755Z,72.60
2019-05-17T18:48:44.771Z,72.40
2019-05-17T18:51:13.765Z,73.60
2019-05-17T18:53:43.685Z,73.00
2019-05-17T18:56:12.771Z,72.90
2019-05-17T18:58:41.681Z,73.30
2019-05-17T19:01:11.574Z,73.70
2019-05-17T19:03:40.418Z,74.00
2019-05-17T19:06:09.393Z,75.90
2019-05-17T19:08:38.435Z,74.60
2019-05-17T19:11:07.443Z,75.60
2019-05-17T19:13:36.346Z,75.90
2019-05-17T19:16:05.615Z,76.70
2019-05-17T19:18:34.538Z,77.10
2019-05-17T19:21:03.441Z,77.50
2019-05-17T19:23:32.438Z,77.60
2019-05-17T19:26:01.378Z,78.10
2019-05-17T19:28:30.395Z,78.40
2019-05-17T19:30:59.370Z,79.10
2019-05-17T19:33:28.274Z,79.20
2019-05-17T19:35:57.222Z,79.60
2019-05-17T19:38:26.407Z,79.30
2019-05-17T19:40:55.246Z,80.10
2019-05-17T19:43:24.104Z,81.70
2019-05-17T19:45:53.012Z,81.60
2019-05-17T19:48:21.913Z,81.90
2019-05-17T19:50:51.069Z,82.80
2019-05-17T19:53:20.032Z,82.80
2019-05-17T19:55:49.002Z,83.10
2019-05-17T19:58:17.832Z,83.20
2019-05-17T20:00:46.948Z,83.00
2019-05-17T20:03:15.983Z,82.50
2019-05-17T20:05:45.090Z,83.20
2019-05-17T20:08:14.062Z,83.90
2019-05-17T20:10:42.992Z,84.20
2019-05-17T20:13:11.868Z,84.00
2019-05-17T20:15:41.209Z,85.00
2019-05-17T20:18:10.441Z,86.50
2019-05-17T20:20:39.337Z,85.80
2019-05-17T20:23:08.430Z,86.00
2019-05-17T20:25:37.683Z,86.60
2019-05-17T20:28:06.610Z,86.70
2019-05-17T20:30:35.434Z,87.00
2019-05-17T20:33:04.386Z,87.20
2019-05-17T20:35:33.903Z,88.00
2019-05-17T20:38:03.348Z,88.00
2019-05-17T20:40:32.305Z,87.90
2019-05-17T20:43:01.248Z,88.60
2019-05-17T20:45:33.308Z,88.60
2019-05-17T20:48:00.881Z,88.60
2019-05-17T20:50:30.200Z,90.00
2019-05-17T20:52:59.142Z,90.00
2019-05-17T20:55:28.161Z,90.20
2019-05-17T20:57:57.437Z,90.10
2019-05-17T21:00:26.637Z,90.50
2019-05-17T21:02:55.668Z,90.50
2019-05-17T21:05:24.578Z,90.50
2019-05-17T21:07:53.681Z,90.70
2019-05-17T21:10:22.812Z,90.90
2019-05-17T21:12:51.797Z,90.90
2019-05-17T21:15:20.735Z,91.00
2019-05-17T21:17:49.739Z,91.30
2019-05-17T21:20:18.745Z,91.40
2019-05-17T21:22:47.829Z,91.50
2019-05-17T21:25:17.364Z,91.90
2019-05-17T21:27:46.222Z,92.10
2019-05-17T21:30:15.692Z,92.10
2019-05-17T21:32:44.533Z,92.00
2019-05-17T21:35:13.797Z,92.10
2019-05-17T21:37:42.791Z,92.20
2019-05-17T21:40:11.867Z,92.30
2019-05-17T21:42:40.882Z,92.40
2019-05-17T21:45:10.219Z,92.40
2019-05-17T21:47:39.371Z,92.70
2019-05-17T21:50:08.770Z,92.60
2019-05-17T21:52:37.906Z,92.60
2019-05-17T21:55:06.896Z,92.50
2019-05-17T21:57:36.030Z,92.10
2019-05-17T22:00:08.545Z,92.00
2019-05-17T22:02:37.506Z,91.60
2019-05-17T22:05:06.915Z,92.20
2019-05-17T22:07:36.117Z,91.30
2019-05-17T22:10:05.591Z,91.10
2019-05-17T22:12:34.734Z,92.10
2019-05-17T22:15:03.804Z,92.10
2019-05-17T22:17:32.843Z,92.10
2019-05-17T22:20:03.690Z,92.60
2019-05-17T22:22:32.624Z,92.70
2019-05-17T22:25:01.494Z,92.90
2019-05-17T22:27:30.403Z,92.40
2019-05-17T22:29:59.255Z,92.40
2019-05-17T22:32:28.113Z,92.30
2019-05-17T22:34:56.974Z,93.10
2019-05-17T22:37:25.936Z,93.50
2019-05-17T22:39:55.070Z,93.50
2019-05-17T22:42:24.169Z,93.90
2019-05-17T22:44:53.212Z,93.90
2019-05-17T22:47:22.147Z,93.50
2019-05-17T22:49:51.063Z,93.90
2019-05-17T22:52:20.281Z,93.80
2019-05-17T22:54:49.143Z,94.20
2019-05-17T22:57:18.413Z,94.30
2019-05-17T22:59:47.641Z,94.70
2019-05-17T23:02:16.577Z,95.00
2019-05-17T23:04:45.797Z,95.00
2019-05-17T23:07:14.713Z,95.20
2019-05-17T23:09:43.689Z,95.20
2019-05-17T23:12:12.605Z,95.30
2019-05-17T23:14:41.509Z,95.20
2019-05-17T23:17:10.442Z,95.30
2019-05-17T23:19:39.539Z,95.60
2019-05-17T23:22:08.381Z,95.80
2019-05-17T23:24:37.318Z,95.80
2019-05-17T23:27:06.319Z,96.00
2019-05-17T23:29:35.255Z,96.00
2019-05-17T23:32:04.250Z,96.10
2019-05-17T23:34:33.395Z,96.30
2019-05-17T23:37:02.344Z,96.50
2019-05-17T23:39:31.221Z,96.50
2019-05-17T23:42:00.128Z,96.50
2019-05-17T23:44:29.033Z,96.90
2019-05-17T23:47:06.699Z,97.00
2019-05-17T23:49:28.913Z,97.20
2019-05-17T23:51:57.745Z,97.30
2019-05-17T23:54:26.597Z,97.50
2019-05-17T23:56:55.463Z,97.60
2019-05-17T23:59:25.174Z,97.80
